Time,TemperatureF,DewpointF,PressureIn,WindDirection,WindDirectionDegrees,WindSpeedMPH,WindSpeedGustMPH,Humidity,HourlyPrecipIn,Conditions,Clouds,dailyrainin,SoftwareType,DateUTC
2013-01-05 00:02:00,36.7,35.0,30.40,NNE,20,0.0,0.0,95,0.00,,,0.00,weatherlink.com 1.10,2013-01-05 06:02:00,
2013-01-05 00:17:00,36.8,36.0,30.39,NNE,20,0.0,0.0,95,0.00,,,0.00,weatherlink.com 1.10,2013-01-05 06:17:00,
2013-01-05 00:32:00,36.9,36.0,30.39,NNE,20,0.0,0.0,95,0.00,,,0.00,weatherlink.com 1.10,2013-01-05 06:32:00,
2013-01-05 00:47:00,36.9,36.0,30.39,NNE,20,0.0,0.0,95,0.00,,,0.00,weatherlink.com 1.10,2013-01-05 06:47:00,
2013-01-05 01:02:00,36.8,36.0,30.39,NNE,20,0.0,0.0,95,0.01,,,0.01,weatherlink.com 1.10,2013-01-05 07:02:00,
2013-01-05 01:17:00,36.9,36.0,30.38,NNE,20,0.0,0.0,95,0.01,,,0.01,weatherlink.com 1.10,2013-01-05 07:17:00,
2013-01-05 01:32:00,36.9,36.0,30.38,NNE,20,0.0,0.0,95,0.01,,,0.01,weatherlink.com 1.10,2013-01-05 07:32:00,
2013-01-05 01:47:00,36.9,36.0,30.38,NNE,20,0.0,0.0,95,0.01,,,0.01,weatherlink.com 1.10,2013-01-05 07:47:00,
2013-01-05 02:02:00,36.9,36.0,30.38,West,277,0.0,1.0,95,0.00,,,0.01,weatherlink.com 1.10,2013-01-05 08:02:00,
2013-01-05 02:17:00,37.0,36.0,30.38,West,277,0.0,0.0,95,0.00,,,0.01,weatherlink.com 1.10,2013-01-05 08:17:00,
2013-01-05 02:32:00,37.1,36.0,30.38,West,277,0.0,0.0,95,0.00,,,0.01,weatherlink.com 1.10,2013-01-05 08:32:00,
2013-01-05 02:48:00,37.1,36.0,30.38,West,277,0.0,0.0,95,0.00,,,0.01,weatherlink.com 1.10,2013-01-05 08:48:00,
2013-01-05 03:03:00,37.1,36.0,30.37,West,277,0.0,0.0,95,0.00,,,0.01,weatherlink.com 1.10,2013-01-05 09:03:00,
2013-01-05 03:18:00,37.1,36.0,30.37,West,277,0.0,1.0,95,0.00,,,0.01,weatherlink.com 1.10,2013-01-05 09:18:00,
2013-01-05 03:33:00,37.2,36.0,30.37,West,277,0.0,0.0,95,0.00,,,0.01,weatherlink.com 1.10,2013-01-05 09:33:00,
2013-01-05 03:48:00,37.3,36.0,30.37,West,277,0.0,0.0,95,0.00,,,0.01,weatherlink.com 1.10,2013-01-05 09:48:00,
2013-01-05 04:03:00,37.3,36.0,30.36,West,277,0.0,0.0,95,0.00,,,0.01,weatherlink.com 1.10,2013-01-05 10:03:00,
2013-01-05 04:18:00,37.3,36.0,30.36,West,277,0.0,1.0,95,0.00,,,0.01,weatherlink.com 1.10,2013-01-05 10:18:00,
2013-01-05 04:33:00,37.3,36.0,30.36,West,277,0.0,1.0,95,0.00,,,0.01,weatherlink.com 1.10,2013-01-05 10:33:00,
2013-01-05 04:48:00,37.4,36.0,30.36,West,277,0.0,1.0,95,0.00,,,0.01,weatherlink.com 1.10,2013-01-05 10:48:00,
2013-01-05 05:03:00,37.4,36.0,30.35,West,278,0.0,0.0,95,0.00,,,0.01,weatherlink.com 1.10,2013-01-05 11:03:00,
2013-01-05 05:18:00,37.4,36.0,30.35,West,278,0.0,0.0,95,0.00,,,0.01,weatherlink.com 1.10,2013-01-05 11:18:00,
2013-01-05 05:33:00,37.3,36.0,30.34,West,278,0.0,0.0,95,0.00,,,0.01,weatherlink.com 1.10,2013-01-05 11:33:00,
2013-01-05 05:48:00,37.5,36.0,30.34,West,278,0.0,1.0,95,0.00,,,0.01,weatherlink.com 1.10,2013-01-05 11:48:00,
2013-01-05 06:03:00,37.5,36.0,30.34,West,278,0.0,0.0,95,0.00,,,0.01,weatherlink.com 1.10,2013-01-05 12:03:00,
2013-01-05 06:18:00,37.6,36.0,30.34,West,278,0.0,0.0,95,0.00,,,0.01,weatherlink.com 1.10,2013-01-05 12:18:00,
2013-01-05 06:33:00,37.7,36.0,30.34,West,278,0.0,0.0,95,0.00,,,0.01,weatherlink.com 1.10,2013-01-05 12:33:00,
2013-01-05 06:48:00,37.8,37.0,30.34,West,278,0.0,0.0,95,0.00,,,0.01,weatherlink.com 1.10,2013-01-05 12:48:00,
2013-01-05 07:03:00,37.7,36.0,30.35,West,278,0.0,0.0,95,0.00,,,0.01,weatherlink.com 1.10,2013-01-05 13:03:00,
2013-01-05 07:18:00,37.1,36.0,30.36,West,278,0.0,0.0,95,0.00,,,0.01,weatherlink.com 1.10,2013-01-05 13:18:00,
2013-01-05 07:33:00,37.0,36.0,30.36,West,278,0.0,0.0,95,0.00,,,0.01,weatherlink.com 1.10,2013-01-05 13:33:00,
2013-01-05 07:48:00,36.7,36.0,30.36,West,278,0.0,0.0,96,0.00,,,0.01,weatherlink.com 1.10,2013-01-05 13:48:00,
2013-01-05 08:03:00,36.9,36.0,30.36,West,278,0.0,0.0,96,0.00,,,0.01,weatherlink.com 1.10,2013-01-05 14:03:00,
2013-01-05 08:18:00,37.4,36.0,30.37,West,278,0.0,0.0,96,0.00,,,0.01,weatherlink.com 1.10,2013-01-05 14:18:00,
2013-01-05 08:33:00,38.1,37.0,30.36,SW,229,0.0,1.0,96,0.00,,,0.01,weatherlink.com 1.10,2013-01-05 14:33:00,
2013-01-05 08:48:00,38.9,38.0,30.37,SW,229,1.0,2.0,96,0.00,,,0.01,weatherlink.com 1.10,2013-01-05 14:48:00,
2013-01-05 09:03:00,39.4,38.0,30.37,WNW,284,2.0,5.0,94,0.00,,,0.01,weatherlink.com 1.10,2013-01-05 15:03:00,
2013-01-05 09:18:00,39.5,38.0,30.37,NW,307,4.0,5.0,93,0.00,,,0.01,weatherlink.com 1.10,2013-01-05 15:18:00,
2013-01-05 09:48:00,40.4,38.0,30.38,WNW,303,0.0,6.0,92,0.00,,,0.01,weatherlink.com 1.10,2013-01-05 15:48:00,
2013-01-05 10:03:00,40.7,38.0,30.38,West,266,2.0,6.0,90,0.00,,,0.01,weatherlink.com 1.10,2013-01-05 16:03:00,
2013-01-05 10:18:00,40.7,38.0,30.38,NW,316,1.0,4.0,91,0.00,,,0.01,weatherlink.com 1.10,2013-01-05 16:18:00,
2013-01-05 10:33:00,40.9,38.0,30.37,NW,313,1.0,4.0,90,0.00,,,0.01,weatherlink.com 1.10,2013-01-05 16:33:00,
2013-01-05 10:48:00,41.4,39.0,30.37,WNW,290,1.0,4.0,90,0.00,,,0.01,weatherlink.com 1.10,2013-01-05 16:48:00,
2013-01-05 11:03:00,42.8,40.0,30.36,North,349,0.0,2.0,88,0.00,,,0.01,weatherlink.com 1.10,2013-01-05 17:03:00,
2013-01-05 11:18:00,43.3,39.0,30.36,West,278,3.0,4.0,86,0.00,,,0.01,weatherlink.com 1.10,2013-01-05 17:18:00,
2013-01-05 11:33:00,43.6,39.0,30.35,NNE,29,3.0,5.0,85,0.00,,,0.01,weatherlink.com 1.10,2013-01-05 17:33:00,
2013-01-05 11:48:00,44.0,40.0,30.34,NE,36,1.0,4.0,85,0.00,,,0.01,weatherlink.com 1.10,2013-01-05 17:48:00,
2013-01-05 12:03:00,47.2,41.0,30.33,WSW,250,3.0,7.0,79,0.00,,,0.01,weatherlink.com 1.10,2013-01-05 18:03:00,
2013-01-05 12:18:00,48.9,42.0,30.32,NW,312,2.0,4.0,77,0.00,,,0.01,weatherlink.com 1.10,2013-01-05 18:18:00,
2013-01-05 12:34:00,50.5,43.0,30.30,West,264,1.0,3.0,74,0.00,,,0.01,weatherlink.com 1.10,2013-01-05 18:34:00,
2013-01-05 12:49:00,52.2,43.0,30.29,WSW,243,1.0,4.0,71,0.00,,,0.01,weatherlink.com 1.10,2013-01-05 18:49:00,
2013-01-05 13:04:00,52.5,41.0,30.28,NE,37,3.0,4.0,66,0.00,,,0.01,weatherlink.com 1.10,2013-01-05 19:04:00,
2013-01-05 13:19:00,52.6,40.0,30.27,NW,319,6.0,6.0,63,0.00,,,0.01,weatherlink.com 1.10,2013-01-05 19:19:00,
2013-01-05 13:34:00,53.5,41.0,30.26,NNE,15,3.0,4.0,63,0.00,,,0.01,weatherlink.com 1.10,2013-01-05 19:34:00,
2013-01-05 13:49:00,55.9,42.0,30.25,West,281,2.0,4.0,59,0.00,,,0.01,weatherlink.com 1.10,2013-01-05 19:49:00,
2013-01-05 14:04:00,56.0,41.0,30.24,NW,316,3.0,5.0,57,0.00,,,0.01,weatherlink.com 1.10,2013-01-05 20:04:00,
2013-01-05 14:19:00,55.7,40.0,30.23,WSW,257,2.0,5.0,56,0.00,,,0.01,weatherlink.com 1.10,2013-01-05 20:19:00,
2013-01-05 14:34:00,55.8,40.0,30.23,West,264,5.0,7.0,56,0.00,,,0.01,weatherlink.com 1.10,2013-01-05 20:34:00,
2013-01-05 14:49:00,57.0,41.0,30.22,WSW,252,2.0,7.0,55,0.00,,,0.01,weatherlink.com 1.10,2013-01-05 20:49:00,
2013-01-05 15:04:00,55.7,39.0,30.22,WNW,283,1.0,6.0,54,0.00,,,0.01,weatherlink.com 1.10,2013-01-05 21:04:00,
2013-01-05 15:19:00,56.2,40.0,30.22,WSW,240,1.0,8.0,55,0.00,,,0.01,weatherlink.com 1.10,2013-01-05 21:19:00,
2013-01-05 15:34:00,58.0,40.0,30.22,WNW,293,2.0,5.0,51,0.00,,,0.01,weatherlink.com 1.10,2013-01-05 21:34:00,
2013-01-05 15:49:00,58.6,40.0,30.22,WNW,290,0.0,6.0,50,0.00,,,0.01,weatherlink.com 1.10,2013-01-05 21:49:00,
2013-01-05 16:04:00,58.6,40.0,30.22,NW,314,3.0,8.0,50,0.00,,,0.01,weatherlink.com 1.10,2013-01-05 22:04:00,
2013-01-05 16:19:00,58.0,40.0,30.22,WNW,295,1.0,5.0,51,0.00,,,0.01,weatherlink.com 1.10,2013-01-05 22:19:00,
2013-01-05 16:34:00,59.3,39.0,30.22,WNW,295,2.0,2.0,47,0.00,,,0.01,weatherlink.com 1.10,2013-01-05 22:34:00,
2013-01-05 16:49:00,58.8,39.0,30.22,NW,312,1.0,3.0,48,0.00,,,0.01,weatherlink.com 1.10,2013-01-05 22:49:00,
2013-01-05 17:04:00,59.1,40.0,30.22,NW,309,0.0,1.0,50,0.00,,,0.01,weatherlink.com 1.10,2013-01-05 23:04:00,
2013-01-05 17:19:00,60.0,41.0,30.22,NW,309,0.0,0.0,49,0.00,,,0.01,weatherlink.com 1.10,2013-01-05 23:19:00,
2013-01-05 17:34:00,55.5,41.0,30.22,NW,309,0.0,0.0,59,0.00,,,0.01,weatherlink.com 1.10,2013-01-05 23:34:00,
2013-01-05 17:49:00,50.2,40.0,30.23,NNW,344,1.0,1.0,67,0.00,,,0.01,weatherlink.com 1.10,2013-01-05 23:49:00,
2013-01-05 18:05:00,47.3,39.0,30.23,NNW,345,1.0,1.0,74,0.00,,,0.01,weatherlink.com 1.10,2013-01-06 00:05:00,
2013-01-05 18:19:00,44.3,39.0,30.24,NNW,344,1.0,1.0,80,0.00,,,0.01,weatherlink.com 1.10,2013-01-06 00:19:00,
2013-01-05 18:34:00,43.1,38.0,30.25,NNW,345,0.0,0.0,83,0.00,,,0.01,weatherlink.com 1.10,2013-01-06 00:34:00,
2013-01-05 18:49:00,41.4,38.0,30.25,NNW,342,0.0,1.0,86,0.00,,,0.01,weatherlink.com 1.10,2013-01-06 00:49:00,
2013-01-05 19:04:00,40.4,37.0,30.25,NNW,342,0.0,1.0,87,0.00,,,0.01,weatherlink.com 1.10,2013-01-06 01:04:00,
2013-01-05 19:19:00,39.3,36.0,30.26,NNW,343,0.0,0.0,89,0.00,,,0.01,weatherlink.com 1.10,2013-01-06 01:19:00,
2013-01-05 19:34:00,38.3,36.0,30.26,NNW,342,0.0,0.0,90,0.00,,,0.01,weatherlink.com 1.10,2013-01-06 01:34:00,
2013-01-05 19:49:00,37.5,35.0,30.26,NNW,343,0.0,0.0,91,0.00,,,0.01,weatherlink.com 1.10,2013-01-06 01:49:00,
2013-01-05 20:04:00,36.4,34.0,30.27,NNW,342,0.0,0.0,92,0.00,,,0.01,weatherlink.com 1.10,2013-01-06 02:04:00,
2013-01-05 20:19:00,35.6,34.0,30.27,NNW,343,0.0,0.0,93,0.00,,,0.01,weatherlink.com 1.10,2013-01-06 02:19:00,
2013-01-05 20:34:00,34.9,33.0,30.28,NNW,343,0.0,0.0,93,0.00,,,0.01,weatherlink.com 1.10,2013-01-06 02:34:00,
2013-01-05 20:49:00,34.5,33.0,30.28,NNW,343,0.0,0.0,93,0.00,,,0.01,weatherlink.com 1.10,2013-01-06 02:49:00,
2013-01-05 21:04:00,34.2,33.0,30.28,NNW,343,0.0,0.0,94,0.00,,,0.01,weatherlink.com 1.10,2013-01-06 03:04:00,
2013-01-05 21:20:00,33.5,32.0,30.28,North,349,0.0,1.0,95,0.00,,,0.01,weatherlink.com 1.10,2013-01-06 03:20:00,
2013-01-05 21:35:00,33.2,32.0,30.29,North,349,0.0,1.0,94,0.00,,,0.01,weatherlink.com 1.10,2013-01-06 03:35:00,
2013-01-05 21:50:00,32.9,31.0,30.29,North,349,0.0,0.0,94,0.00,,,0.01,weatherlink.com 1.10,2013-01-06 03:50:00,
2013-01-05 22:05:00,32.2,31.0,30.29,North,349,0.0,0.0,94,0.00,,,0.01,weatherlink.com 1.10,2013-01-06 04:05:00,
2013-01-05 22:20:00,31.8,31.0,30.29,North,349,0.0,0.0,95,0.00,,,0.01,weatherlink.com 1.10,2013-01-06 04:20:00,
2013-01-05 22:35:00,31.6,30.0,30.29,North,349,0.0,0.0,95,0.00,,,0.01,weatherlink.com 1.10,2013-01-06 04:35:00,
2013-01-05 22:50:00,30.9,30.0,30.30,North,349,0.0,0.0,95,0.00,,,0.01,weatherlink.com 1.10,2013-01-06 04:50:00,
2013-01-05 23:05:00,30.6,29.0,30.30,NNW,347,0.0,1.0,95,0.00,,,0.01,weatherlink.com 1.10,2013-01-06 05:05:00,
2013-01-05 23:20:00,30.7,30.0,30.30,NNW,347,0.0,1.0,96,0.00,,,0.01,weatherlink.com 1.10,2013-01-06 05:20:00,
2013-01-05 23:35:00,30.2,29.0,30.30,NNW,347,0.0,1.0,95,0.00,,,0.01,weatherlink.com 1.10,2013-01-06 05:35:00,
2013-01-05 23:50:00,30.0,29.0,30.31,NNW,347,0.0,0.0,95,0.00,,,0.01,weatherlink.com 1.10,2013-01-06 05:50:00,